Time;durP1;ratioP1;P1;durP2;ratioP2;P2;SDS_P1;SDS_P2;PMS_P1;PMS_P2;Temp;Humidity;BMP_temperature;BMP_pressure;BME280_temperature;BME280_humidity;BME280_pressure;Samples;Min_cycle;Max_cycle;Signal;HPM_P1;HPM_P2
2022/05/28 00:00:27;;;;;;;13.50;2.42;;;12.10;85.80;;;;;;5058828;28;20363;-83
2022/05/28 00:02:55;;;;;;;15.70;2.50;;;12.00;86.10;;;;;;5076191;28;20056;-82
2022/05/28 00:05:22;;;;;;;9.95;2.13;;;12.00;86.30;;;;;;5074933;28;20071;-83
2022/05/28 00:07:50;;;;;;;14.20;2.22;;;11.90;86.60;;;;;;5058231;28;20056;-84
2022/05/28 00:10:18;;;;;;;10.13;1.85;;;11.90;87.60;;;;;;5058943;28;20056;-83
2022/05/28 00:12:47;;;;;;;9.75;1.98;;;12.30;87.40;;;;;;5057577;28;20052;-80
2022/05/28 00:15:15;;;;;;;9.43;2.08;;;11.80;87.30;;;;;;5076090;28;20364;-83
2022/05/28 00:17:43;;;;;;;;;;;11.70;87.60;;;;;;5076563;28;20451;-84
2022/05/28 00:20:11;;;;;;;11.63;2.35;;;11.70;88.70;;;;;;5039721;28;19921;-83
2022/05/28 00:22:43;;;;;;;;;;;11.70;88.40;;;;;;5076108;28;20375;-84
2022/05/28 00:25:14;;;;;;;11.95;1.92;;;11.60;89.00;;;;;;5074961;28;19925;-82
2022/05/28 00:27:42;;;;;;;9.93;2.10;;;11.60;88.00;;;;;;5058550;28;20048;-81
2022/05/28 00:30:12;;;;;;;11.18;1.88;;;11.60;88.40;;;;;;5075880;28;20055;-82
2022/05/28 00:32:42;;;;;;;10.55;1.77;;;11.50;88.50;;;;;;5056992;28;20036;-80
2022/05/28 00:35:13;;;;;;;13.43;1.90;;;11.50;89.00;;;;;;5075194;28;20053;-83
2022/05/28 00:37:44;;;;;;;12.63;1.90;;;11.50;89.10;;;;;;5058452;28;20044;-81
2022/05/28 00:40:17;;;;;;;8.30;1.58;;;11.50;89.30;;;;;;5040347;28;20055;-82
2022/05/28 00:42:44;;;;;;;9.80;1.98;;;11.50;89.70;;;;;;5075410;28;20052;-80
2022/05/28 00:45:13;;;;;;;10.35;1.90;;;11.40;89.50;;;;;;5056794;28;20060;-82
2022/05/28 00:47:47;;;;;;;10.80;1.73;;;11.40;89.70;;;;;;5075175;28;20456;-82
2022/05/28 00:50:19;;;;;;;11.45;1.90;;;11.40;89.90;;;;;;5075182;28;20356;-82
2022/05/28 00:52:48;;;;;;;9.77;2.20;;;11.40;90.00;;;;;;5074255;28;20051;-82
2022/05/28 00:55:17;;;;;;;13.32;2.13;;;11.30;90.00;;;;;;5075151;28;20055;-84
2022/05/28 00:57:46;;;;;;;7.88;2.03;;;11.30;90.10;;;;;;5057500;28;20052;-83
2022/05/28 01:00:18;;;;;;;15.30;2.35;;;11.30;90.20;;;;;;5074780;28;20383;-81
2022/05/28 01:03:02;;;;;;;17.20;2.25;;;11.20;90.40;;;;;;5075177;28;20375;-83
2022/05/28 01:05:53;;;;;;;10.20;1.80;;;11.20;90.80;;;;;;5074055;28;20456;-83
2022/05/28 01:08:40;;;;;;;11.43;1.95;;;11.10;90.70;;;;;;5074751;28;20037;-80
2022/05/28 01:11:23;;;;;;;8.90;1.92;;;11.10;90.90;;;;;;5074429;28;20063;-82
2022/05/28 01:14:00;;;;;;;12.57;1.80;;;11.10;90.90;;;;;;5074864;28;20376;-80
2022/05/28 01:16:36;;;;;;;10.70;2.28;;;11.00;91.10;;;;;;5057136;28;20059;-80
2022/05/28 01:19:10;;;;;;;12.82;2.00;;;11.00;91.40;;;;;;5040102;28;20371;-83
2022/05/28 01:21:51;;;;;;;13.68;2.13;;;11.00;91.50;;;;;;5075148;28;20044;-83
2022/05/28 01:24:37;;;;;;;10.68;1.80;;;10.90;91.60;;;;;;5075150;28;20045;-80
2022/05/28 01:27:09;;;;;;;9.55;2.25;;;10.90;91.80;;;;;;5074558;28;20067;-83
2022/05/28 01:29:58;;;;;;;11.75;1.75;;;10.90;91.70;;;;;;5041281;28;20075;-79
2022/05/28 01:32:27;;;;;;;9.93;1.88;;;10.80;92.40;;;;;;5073444;28;20060;-81
2022/05/28 01:34:58;;;;;;;10.70;1.73;;;10.80;92.00;;;;;;5074542;28;20383;-81
2022/05/28 01:37:29;;;;;;;9.18;1.27;;;10.80;92.20;;;;;;5074615;28;20047;-81
2022/05/28 01:39:58;;;;;;;11.88;1.70;;;10.80;92.40;;;;;;5073485;28;20052;-80
2022/05/28 01:42:27;;;;;;;9.32;1.73;;;10.70;92.40;;;;;;5040996;28;20048;-83
2022/05/28 01:44:56;;;;;;;9.05;1.85;;;10.80;92.40;;;;;;5073383;28;20055;-84
2022/05/28 01:47:24;;;;;;;8.98;1.80;;;10.70;92.50;;;;;;5074540;28;20053;-84
2022/05/28 01:49:52;;;;;;;;;;;10.80;92.60;;;;;;5074987;28;20056;-81
2022/05/28 01:52:22;;;;;;;9.27;1.63;;;10.70;93.20;;;;;;5056133;28;19927;-83
2022/05/28 01:54:52;;;;;;;11.15;1.88;;;10.70;92.50;;;;;;5057228;28;20064;-84
2022/05/28 01:57:23;;;;;;;9.48;1.95;;;10.70;92.50;;;;;;5074191;28;20040;-82
2022/05/28 01:59:51;;;;;;;8.57;1.90;;;10.70;92.50;;;;;;5073435;28;20059;-84
2022/05/28 02:02:19;;;;;;;10.27;1.85;;;10.80;92.70;;;;;;5074544;28;20043;-82
2022/05/28 02:04:47;;;;;;;10.43;1.65;;;10.70;92.70;;;;;;5056001;28;20040;-82
2022/05/28 02:07:17;;;;;;;12.55;2.00;;;10.70;92.60;;;;;;5074585;28;20057;-82
2022/05/28 02:09:58;;;;;;;9.18;1.63;;;10.70;92.60;;;;;;5056678;28;20063;-83
2022/05/28 02:12:53;;;;;;;9.75;1.77;;;10.70;92.60;;;;;;5055767;28;20379;-82
2022/05/28 02:15:37;;;;;;;13.05;1.73;;;10.70;92.60;;;;;;5057392;28;20051;-83
2022/05/28 02:18:21;;;;;;;9.00;1.98;;;10.70;92.60;;;;;;5072070;28;20052;-82
2022/05/28 02:21:11;;;;;;;10.50;1.90;;;10.70;92.70;;;;;;5056653;28;20135;-84
2022/05/28 02:23:57;;;;;;;14.38;2.17;;;10.70;92.70;;;;;;5074547;28;20048;-81
2022/05/28 02:26:31;;;;;;;10.35;1.90;;;10.60;92.70;;;;;;5073041;28;20037;-82
2022/05/28 02:29:00;;;;;;;13.05;2.08;;;10.60;92.90;;;;;;5073535;28;20045;-81
2022/05/28 02:31:31;;;;;;;13.30;1.70;;;10.60;92.80;;;;;;5073103;28;20227;-82
2022/05/28 02:34:18;;;;;;;12.77;2.03;;;10.50;92.80;;;;;;5059558;28;20064;-80
2022/05/28 02:37:04;;;;;;;10.20;2.20;;;10.50;92.80;;;;;;5074144;28;20052;-81
2022/05/28 02:39:32;;;;;;;12.10;2.08;;;10.50;92.90;;;;;;5073232;28;20464;-81
2022/05/28 02:41:59;;;;;;;9.90;1.90;;;10.40;93.10;;;;;;5073950;28;20056;-83
2022/05/28 02:44:28;;;;;;;12.82;1.92;;;10.40;93.10;;;;;;5025112;28;20388;-82
2022/05/28 02:46:56;;;;;;;9.40;1.80;;;10.30;93.20;;;;;;5060392;28;20060;-83
2022/05/28 02:49:25;;;;;;;12.13;2.08;;;10.30;93.30;;;;;;5077526;28;20051;-83
2022/05/28 02:51:53;;;;;;;11.30;2.17;;;10.30;93.40;;;;;;5059269;28;20048;-82
2022/05/28 02:54:22;;;;;;;11.20;2.10;;;10.20;93.40;;;;;;5077441;28;20052;-79
2022/05/28 02:56:49;;;;;;;12.13;1.90;;;10.20;93.50;;;;;;5059787;28;20056;-83
2022/05/28 02:59:17;;;;;;;14.88;1.90;;;10.10;93.80;;;;;;5076354;28;20490;-80
2022/05/28 03:01:45;;;;;;;11.02;2.13;;;10.10;93.80;;;;;;5077556;28;20048;-80
2022/05/28 03:04:12;;;;;;;14.45;2.08;;;10.10;93.80;;;;;;5059975;28;20040;-83
2022/05/28 03:06:40;;;;;;;9.55;1.73;;;10.10;93.90;;;;;;5076181;28;20063;-82
2022/05/28 03:09:09;;;;;;;9.45;1.60;;;10.00;94.00;;;;;;5077202;28;20048;-81
2022/05/28 03:11:37;;;;;;;;;;;10.00;93.90;;;;;;5077133;28;20052;-81
2022/05/28 03:14:05;;;;;;;12.52;1.73;;;10.00;94.20;;;;;;5043439;28;19921;-84
2022/05/28 03:16:32;;;;;;;12.35;2.00;;;10.10;93.70;;;;;;5042532;28;20044;-80
2022/05/28 03:19:00;;;;;;;10.95;1.50;;;10.10;93.70;;;;;;5075935;28;20051;-80
2022/05/28 03:21:28;;;;;;;8.18;1.50;;;10.10;93.70;;;;;;5077301;28;20467;-83
2022/05/28 03:23:56;;;;;;;13.52;1.77;;;10.10;93.70;;;;;;5059092;28;20067;-84
2022/05/28 03:26:25;;;;;;;6.82;1.35;;;10.10;93.50;;;;;;5058140;28;20060;-83
2022/05/28 03:28:56;;;;;;;13.38;1.70;;;10.10;93.50;;;;;;5059150;28;20051;-83
2022/05/28 03:31:27;;;;;;;10.70;1.60;;;10.10;93.40;;;;;;5075922;28;20036;-82
2022/05/28 03:33:56;;;;;;;9.20;1.55;;;10.10;93.50;;;;;;5059422;28;20048;-81
2022/05/28 03:36:42;;;;;;;;;;;10.10;93.60;;;;;;5067725;28;20060;-82
2022/05/28 03:39:10;;;;;;;10.45;1.70;;;10.00;93.90;;;;;;5075829;28;19950;-83
2022/05/28 03:41:37;;;;;;;11.38;1.70;;;10.10;93.60;;;;;;5059787;28;20051;-83
2022/05/28 03:44:05;;;;;;;9.80;1.90;;;10.10;93.60;;;;;;5059135;28;20049;-82
2022/05/28 03:46:35;;;;;;;8.75;1.40;;;10.00;93.60;;;;;;5075394;28;20056;-83
2022/05/28 03:49:21;;;;;;;8.27;1.58;;;10.00;93.60;;;;;;5076578;28;20052;-80
2022/05/28 03:51:50;;;;;;;9.85;1.58;;;9.90;93.80;;;;;;5058114;28;20044;-82
2022/05/28 03:54:18;;;;;;;12.48;1.95;;;9.90;93.80;;;;;;5075997;28;20053;-80
2022/05/28 03:56:46;;;;;;;10.23;1.63;;;9.90;93.90;;;;;;5042257;28;20052;-85
2022/05/28 03:59:14;;;;;;;10.63;1.80;;;9.80;94.00;;;;;;5075220;28;20045;-82
2022/05/28 04:01:42;;;;;;;13.55;1.90;;;9.80;94.20;;;;;;5076580;28;20045;-83
2022/05/28 04:04:10;;;;;;;12.98;2.25;;;9.80;94.20;;;;;;5076091;28;20052;-80
2022/05/28 04:06:38;;;;;;;10.80;2.13;;;9.80;94.30;;;;;;5075043;28;20051;-81
2022/05/28 04:09:06;;;;;;;14.65;2.05;;;9.80;94.30;;;;;;5041715;28;20375;-83
2022/05/28 04:11:35;;;;;;;6.85;1.35;;;9.80;94.40;;;;;;5075156;28;20041;-79
2022/05/28 04:14:04;;;;;;;19.42;2.30;;;9.80;94.60;;;;;;5076024;28;20045;-83
2022/05/28 04:16:32;;;;;;;9.27;1.75;;;9.70;94.80;;;;;;5075783;28;20044;-83
2022/05/28 04:19:00;;;;;;;10.73;1.88;;;9.70;94.60;;;;;;5057621;28;20048;-80
2022/05/28 04:21:28;;;;;;;11.82;1.90;;;9.70;94.80;;;;;;5076105;28;20068;-81
2022/05/28 04:23:55;;;;;;;16.25;1.77;;;9.70;95.00;;;;;;5075749;28;20498;-81
2022/05/28 04:26:23;;;;;;;9.75;1.92;;;9.60;95.00;;;;;;5074522;28;20048;-83
2022/05/28 04:28:50;;;;;;;13.70;2.33;;;9.60;95.10;;;;;;5058558;28;20041;-82
2022/05/28 04:31:18;;;;;;;12.02;2.03;;;9.60;95.50;;;;;;5057341;28;20382;-80
2022/05/28 04:33:46;;;;;;;9.95;1.70;;;9.60;95.50;;;;;;5075256;28;20375;-84
2022/05/28 04:36:14;;;;;;;13.65;2.00;;;9.70;95.80;;;;;;5075560;28;20459;-83
2022/05/28 04:38:42;;;;;;;;;;;9.60;95.70;;;;;;5074823;28;20052;-79
2022/05/28 04:41:09;;;;;;;17.10;1.88;;;9.60;96.40;;;;;;5057558;28;19927;-81
2022/05/28 04:43:37;;;;;;;9.27;2.05;;;9.60;95.80;;;;;;5057852;28;20048;-83
2022/05/28 04:46:05;;;;;;;15.73;2.15;;;9.60;95.90;;;;;;5074139;28;20044;-80
2022/05/28 04:48:36;;;;;;;11.18;1.85;;;9.60;96.00;;;;;;5075581;28;20053;-80
2022/05/28 04:51:06;;;;;;;12.45;2.03;;;9.50;96.20;;;;;;5057894;28;20467;-83
2022/05/28 04:53:38;;;;;;;10.05;1.98;;;9.50;96.10;;;;;;5075659;28;20052;-83
2022/05/28 04:56:06;;;;;;;8.38;1.88;;;9.50;96.20;;;;;;5075116;28;20052;-80
2022/05/28 04:58:40;;;;;;;12.35;1.73;;;9.50;96.30;;;;;;5073946;28;20051;-81
2022/05/28 05:01:12;;;;;;;12.13;2.00;;;9.60;96.50;;;;;;5041267;28;20471;-78
2022/05/28 05:03:40;;;;;;;11.13;1.90;;;9.60;96.60;;;;;;5057623;28;20379;-81
2022/05/28 05:06:08;;;;;;;13.55;2.05;;;9.60;96.70;;;;;;5073532;28;20047;-80
2022/05/28 05:08:43;;;;;;;13.90;1.92;;;9.60;96.70;;;;;;5058471;28;20048;-82
2022/05/28 05:11:11;;;;;;;11.52;1.90;;;9.60;96.70;;;;;;5056922;28;20572;-79
2022/05/28 05:13:39;;;;;;;12.27;2.15;;;9.60;96.70;;;;;;5074814;28;20051;-79
2022/05/28 05:16:12;;;;;;;13.45;1.77;;;9.70;96.80;;;;;;5075026;28;20470;-79
2022/05/28 05:18:41;;;;;;;13.43;1.80;;;9.70;96.70;;;;;;5074375;28;20049;-78
2022/05/28 05:21:11;;;;;;;;;;;9.80;96.80;;;;;;5075411;28;20059;-82
2022/05/28 05:23:40;;;;;;;13.80;1.98;;;9.80;96.70;;;;;;5075364;28;19921;-78
2022/05/28 05:26:13;;;;;;;13.23;2.00;;;9.90;96.70;;;;;;5073690;28;20063;-82
2022/05/28 05:28:41;;;;;;;8.98;1.90;;;9.90;96.80;;;;;;5075338;28;20067;-82
2022/05/28 05:31:13;;;;;;;11.25;1.90;;;10.00;96.60;;;;;;5073983;28;20064;-83
2022/05/28 05:33:40;;;;;;;10.40;2.05;;;10.00;96.60;;;;;;5075185;28;20048;-82
2022/05/28 05:36:08;;;;;;;7.13;1.67;;;10.00;96.50;;;;;;5074816;28;20052;-78
2022/05/28 05:38:37;;;;;;;12.73;1.95;;;10.00;96.70;;;;;;5074078;28;20044;-79
2022/05/28 05:41:05;;;;;;;15.30;1.80;;;10.10;96.50;;;;;;5074914;28;20056;-82
2022/05/28 05:43:33;;;;;;;13.75;1.98;;;10.00;96.50;;;;;;5041504;28;20041;-80
2022/05/28 05:46:01;;;;;;;;;;;10.10;96.70;;;;;;5074362;28;20047;-80
2022/05/28 05:48:30;;;;;;;12.98;2.00;;;10.10;97.00;;;;;;5074521;28;19927;-82
2022/05/28 05:51:08;;;;;;;11.90;1.95;;;10.20;96.50;;;;;;5057736;28;20056;-81
2022/05/28 05:53:36;;;;;;;;;;;10.20;96.50;;;;;;5075185;28;20048;-81
2022/05/28 05:56:04;;;;;;;10.15;1.90;;;10.30;96.60;;;;;;5056650;28;20347;-79
2022/05/28 05:58:34;;;;;;;;;;;10.30;96.30;;;;;;5073884;28;20044;-83
2022/05/28 06:01:03;;;;;;;12.18;1.70;;;10.30;96.50;;;;;;5074490;28;19921;-83
2022/05/28 06:03:31;;;;;;;11.95;1.83;;;10.40;96.30;;;;;;5074467;28;20367;-81
2022/05/28 06:06:00;;;;;;;13.52;1.98;;;10.40;96.20;;;;;;5073349;28;20055;-81
2022/05/28 06:08:28;;;;;;;12.88;1.88;;;10.40;96.10;;;;;;5074207;28;20060;-80
2022/05/28 06:10:56;;;;;;;10.65;1.70;;;10.50;96.10;;;;;;5074702;28;20044;-81
2022/05/28 06:13:23;;;;;;;15.05;1.95;;;10.50;96.00;;;;;;5073273;28;20048;-79
2022/05/28 06:15:51;;;;;;;9.57;1.85;;;10.60;96.10;;;;;;5040209;28;20044;-83
2022/05/28 06:18:18;;;;;;;7.07;1.73;;;10.60;96.10;;;;;;5073263;28;20048;-80
2022/05/28 06:20:47;;;;;;;8.70;1.95;;;10.60;96.00;;;;;;5077970;28;20048;-82
2022/05/28 06:23:17;;;;;;;14.68;1.77;;;10.70;96.10;;;;;;5061087;28;20051;-80
2022/05/28 06:25:45;;;;;;;9.18;1.75;;;10.70;96.10;;;;;;5059594;28;20107;-83
2022/05/28 06:28:13;;;;;;;11.43;1.58;;;10.70;96.00;;;;;;5060726;28;20107;-83
2022/05/28 06:30:43;;;;;;;14.65;2.10;;;10.80;96.00;;;;;;5077987;28;20048;-82
2022/05/28 06:33:11;;;;;;;9.38;1.60;;;10.80;95.90;;;;;;5059441;28;20044;-82
2022/05/28 06:35:41;;;;;;;9.07;1.48;;;10.80;95.80;;;;;;5077830;28;20053;-79
2022/05/28 06:38:09;;;;;;;8.73;1.60;;;10.80;95.80;;;;;;5076764;28;20204;-82
2022/05/28 06:40:37;;;;;;;12.05;1.60;;;10.90;95.70;;;;;;5077850;28;20044;-81
2022/05/28 06:43:05;;;;;;;10.25;1.77;;;10.90;95.60;;;;;;5060257;28;20048;-80
2022/05/28 06:45:32;;;;;;;;;;;11.00;95.60;;;;;;5042803;28;20068;-80
2022/05/28 06:48:00;;;;;;;14.00;1.90;;;11.00;95.50;;;;;;5077649;28;19928;-79
2022/05/28 06:53:13;;;;;;;12.13;1.83;;;11.10;95.50;;;;;;5059034;28;20052;-81
2022/05/28 06:55:41;;;;;;;6.25;1.27;;;11.20;95.50;;;;;;5077587;28;20044;-82
2022/05/28 06:58:08;;;;;;;14.40;1.95;;;11.20;95.10;;;;;;5076190;28;20581;-84
2022/05/28 07:00:36;;;;;;;8.10;1.77;;;11.20;95.30;;;;;;5043073;28;20045;-82
2022/05/28 07:03:05;;;;;;;9.00;1.40;;;11.20;95.40;;;;;;5077397;28;20044;-83
2022/05/28 07:05:32;;;;;;;10.35;2.03;;;11.30;95.30;;;;;;5076230;28;20056;-81
2022/05/28 07:08:07;;;;;;;11.90;1.88;;;11.30;95.40;;;;;;5059461;28;20075;-81
2022/05/28 07:10:38;;;;;;;12.82;1.67;;;11.40;95.50;;;;;;5076899;28;20052;-80
2022/05/28 07:13:06;;;;;;;8.45;1.67;;;11.30;95.30;;;;;;5075820;28;20048;-79
2022/05/28 07:15:34;;;;;;;10.73;1.67;;;11.40;95.40;;;;;;5076850;28;20052;-80
2022/05/28 07:18:01;;;;;;;11.27;1.92;;;11.40;95.50;;;;;;5075557;28;20060;-81
2022/05/28 07:20:29;;;;;;;9.25;1.40;;;11.40;95.60;;;;;;5043021;28;20045;-81
2022/05/28 07:22:57;;;;;;;10.60;1.70;;;11.50;95.40;;;;;;5076826;28;20041;-83
2022/05/28 07:25:24;;;;;;;10.80;2.10;;;11.50;95.50;;;;;;5075659;28;20391;-80
2022/05/28 07:27:52;;;;;;;13.55;1.88;;;11.50;95.30;;;;;;5076606;28;20044;-82
2022/05/28 07:30:19;;;;;;;11.63;1.65;;;11.60;95.30;;;;;;5076022;28;20052;-82
2022/05/28 07:32:47;;;;;;;7.63;1.77;;;11.60;95.30;;;;;;5057993;28;20051;-80
2022/05/28 07:35:14;;;;;;;8.68;1.83;;;11.60;95.30;;;;;;5058876;28;20068;-84
2022/05/28 07:37:42;;;;;;;11.43;1.75;;;11.60;95.20;;;;;;5059143;28;20063;-82
2022/05/28 07:40:10;;;;;;;10.80;1.73;;;11.70;95.50;;;;;;5075149;28;20049;-82
2022/05/28 07:42:38;;;;;;;13.70;1.65;;;11.70;95.30;;;;;;5076267;28;20041;-84
2022/05/28 07:45:06;;;;;;;9.20;1.88;;;11.70;95.30;;;;;;5057681;28;20060;-83
2022/05/28 07:47:33;;;;;;;12.88;1.60;;;11.80;95.40;;;;;;5076036;28;20049;-82
2022/05/28 07:50:01;;;;;;;8.48;1.58;;;11.80;95.40;;;;;;5076137;28;20063;-80
2022/05/28 07:52:28;;;;;;;12.10;1.80;;;11.90;95.30;;;;;;5074899;28;20085;-84
2022/05/28 07:54:56;;;;;;;12.45;1.80;;;11.90;95.00;;;;;;5076070;28;20041;-82
2022/05/28 07:57:24;;;;;;;11.15;1.70;;;11.90;95.00;;;;;;5076147;28;20048;-85
2022/05/28 07:59:51;;;;;;;13.13;1.70;;;12.00;94.90;;;;;;5074771;28;20041;-77
2022/05/28 08:02:19;;;;;;;8.00;2.13;;;12.10;95.00;;;;;;5041431;28;20044;-84
2022/05/28 08:04:47;;;;;;;10.32;1.90;;;12.10;95.00;;;;;;5070047;28;20041;-76
2022/05/28 08:07:14;;;;;;;8.07;1.65;;;12.10;94.70;;;;;;5074746;28;20040;-81
2022/05/28 08:09:42;;;;;;;8.82;1.65;;;12.20;94.70;;;;;;5056134;28;20090;-81
2022/05/28 08:12:09;;;;;;;10.63;1.80;;;12.20;94.70;;;;;;5073665;28;20059;-83
2022/05/28 08:14:37;;;;;;;11.23;1.70;;;12.30;95.00;;;;;;5075420;28;20055;-84
2022/05/28 08:17:04;;;;;;;8.10;1.63;;;12.40;94.30;;;;;;5058504;28;20045;-84
2022/05/28 08:19:32;;;;;;;12.88;1.88;;;12.40;94.60;;;;;;5074569;28;20045;-82
2022/05/28 08:24:53;;;;;;;6.82;1.30;;;12.60;94.30;;;;;;5057555;28;20052;-81
2022/05/28 08:27:20;;;;;;;7.65;1.35;;;12.70;93.90;;;;;;5057463;28;20057;-83
2022/05/28 08:29:49;;;;;;;9.45;1.50;;;12.80;93.80;;;;;;5075840;28;20060;-82
2022/05/28 08:32:18;;;;;;;8.38;1.77;;;12.90;93.90;;;;;;5074485;28;20405;-84
2022/05/28 08:34:45;;;;;;;8.52;1.50;;;12.90;93.60;;;;;;5042343;28;20057;-83
2022/05/28 08:37:14;;;;;;;8.40;1.67;;;13.00;93.40;;;;;;5075487;28;20291;-82
2022/05/28 08:39:42;;;;;;;11.07;1.60;;;13.00;92.90;;;;;;5057115;28;20067;-83
2022/05/28 08:42:12;;;;;;;11.13;1.67;;;13.10;92.70;;;;;;5057276;28;20040;-82
2022/05/28 08:44:41;;;;;;;8.55;1.63;;;13.20;92.60;;;;;;5056817;28;20371;-83
2022/05/28 08:47:25;;;;;;;8.00;1.48;;;13.20;92.90;;;;;;5058224;28;20050;-83
2022/05/28 08:49:53;;;;;;;7.45;1.60;;;13.40;92.60;;;;;;5058388;28;20067;-85
2022/05/28 08:52:40;;;;;;;7.60;1.58;;;13.50;92.60;;;;;;5040675;28;20048;-84
2022/05/28 08:55:30;;;;;;;8.07;1.60;;;13.50;92.00;;;;;;5058279;28;20467;-83
2022/05/28 08:58:10;;;;;;;9.98;1.52;;;14.10;92.30;;;;;;5072338;28;20049;-85
2022/05/28 09:00:51;;;;;;;9.40;1.60;;;13.80;92.20;;;;;;5075146;28;20049;-84
2022/05/28 09:03:19;;;;;;;5.22;1.63;;;14.10;91.80;;;;;;5057378;28;20494;-82
2022/05/28 09:06:04;;;;;;;6.47;1.65;;;14.20;91.00;;;;;;5074352;28;20041;-82
2022/05/28 09:08:48;;;;;;;9.73;1.80;;;14.30;90.80;;;;;;5057762;28;20041;-84
2022/05/28 09:11:34;;;;;;;6.03;1.50;;;14.50;91.00;;;;;;5056747;28;20059;-85
2022/05/28 09:14:17;;;;;;;9.55;1.65;;;14.70;90.60;;;;;;5075257;28;20455;-82
2022/05/28 09:16:46;;;;;;;11.70;1.70;;;15.00;90.10;;;;;;5075369;28;20041;-85
2022/05/28 09:19:20;;;;;;;9.68;1.65;;;15.10;90.50;;;;;;5056692;28;20067;-83
2022/05/28 09:21:48;;;;;;;12.65;1.92;;;15.20;90.40;;;;;;5074916;28;20479;-84
2022/05/28 09:24:32;;;;;;;9.40;1.65;;;15.20;90.20;;;;;;5057095;28;20386;-85
2022/05/28 09:27:30;;;;;;;11.38;2.00;;;15.30;89.10;;;;;;5074956;28;20525;-85
2022/05/28 09:30:03;;;;;;;11.10;1.85;;;15.40;88.80;;;;;;5057208;28;20053;-85
2022/05/28 09:32:55;;;;;;;7.00;1.98;;;15.50;89.10;;;;;;5056068;28;20036;-89
2022/05/28 09:35:38;;;;;;;11.35;2.33;;;15.70;88.10;;;;;;5057332;28;20063;-86
2022/05/28 09:38:10;;;;;;;6.97;1.83;;;15.90;88.70;;;;;;5073905;28;20044;-87
2022/05/28 09:40:43;;;;;;;6.82;1.65;;;16.00;88.40;;;;;;5073744;28;20467;-85
2022/05/28 09:43:30;;;;;;;9.93;1.67;;;16.10;87.20;;;;;;5055839;28;20362;-89
2022/05/28 09:46:13;;;;;;;9.02;2.10;;;16.10;87.90;;;;;;5038441;28;20059;-87
2022/05/28 09:48:42;;;;;;;7.22;1.60;;;16.20;87.70;;;;;;5056568;28;20048;-86
2022/05/28 09:51:24;;;;;;;6.93;1.67;;;16.40;88.20;;;;;;5055990;28;20049;-79
2022/05/28 09:56:54;;;;;;;7.60;1.80;;;16.70;84.90;;;;;;5078692;28;20363;-77
2022/05/28 09:59:26;;;;;;;8.32;1.92;;;16.90;85.20;;;;;;5077412;28;20056;-79
2022/05/28 10:02:01;;;;;;;6.72;1.50;;;17.10;84.90;;;;;;5060809;28;20044;-80
2022/05/28 10:04:30;;;;;;;9.95;1.77;;;17.20;84.60;;;;;;5078020;28;20040;-80
2022/05/28 10:07:02;;;;;;;8.88;1.83;;;17.40;84.70;;;;;;5060878;28;20041;-80
2022/05/28 10:09:33;;;;;;;10.32;1.90;;;17.40;83.30;;;;;;5044675;28;20052;-80
2022/05/28 10:12:17;;;;;;;10.38;1.95;;;17.30;83.90;;;;;;5077066;28;20051;-80
2022/05/28 10:14:56;;;;;;;6.80;1.45;;;17.20;84.70;;;;;;5061219;28;20382;-80
2022/05/28 10:17:25;;;;;;;9.10;1.58;;;17.00;83.30;;;;;;5078274;28;20040;-80
2022/05/28 10:19:56;;;;;;;8.00;1.33;;;16.70;83.60;;;;;;5059309;28;20052;-80
2022/05/28 10:22:26;;;;;;;12.13;1.70;;;16.70;84.00;;;;;;5078005;28;20052;-81
2022/05/28 10:25:03;;;;;;;10.40;1.40;;;16.70;84.00;;;;;;5076934;28;20055;-82
2022/05/28 10:27:39;;;;;;;8.63;1.50;;;17.00;83.50;;;;;;5078533;28;20044;-80
2022/05/28 10:30:22;;;;;;;8.45;1.70;;;17.30;81.30;;;;;;5060947;28;20040;-78
2022/05/28 10:32:51;;;;;;;6.03;1.40;;;17.60;80.50;;;;;;5076663;28;20491;-79
2022/05/28 10:35:26;;;;;;;7.28;1.42;;;17.70;80.80;;;;;;5069496;28;20057;-81
2022/05/28 10:38:12;;;;;;;;;;;17.70;80.30;;;;;;5077539;28;20048;-79
2022/05/28 10:40:49;;;;;;;6.00;1.50;;;17.60;78.60;;;;;;5077482;28;19921;-80
2022/05/28 10:43:32;;;;;;;16.67;2.88;;;17.60;80.80;;;;;;5060116;28;20040;-82
2022/05/28 10:46:24;;;;;;;10.10;1.67;;;17.70;78.60;;;;;;5059116;28;20041;-81
2022/05/28 10:49:10;;;;;;;8.88;1.63;;;17.80;80.90;;;;;;5060737;28;20040;-79
2022/05/28 10:51:53;;;;;;;6.70;1.60;;;18.00;80.00;;;;;;5076348;28;20367;-81
2022/05/28 10:54:54;;;;;;;9.30;1.50;;;18.10;79.60;;;;;;5060566;28;20048;-79
2022/05/28 10:57:43;;;;;;;5.65;1.40;;;18.30;78.70;;;;;;5077824;28;20059;-79
2022/05/28 11:00:15;;;;;;;9.57;1.40;;;18.30;77.30;;;;;;5058863;28;20055;-80
2022/05/28 11:03:10;;;;;;;10.77;1.60;;;18.10;76.70;;;;;;5077325;28;20048;-81
2022/05/28 11:06:09;;;;;;;7.13;1.50;;;18.00;77.10;;;;;;5057975;28;20482;-80
2022/05/28 11:08:40;;;;;;;5.75;1.38;;;18.10;79.20;;;;;;5059992;28;20040;-80
2022/05/28 11:11:28;;;;;;;5.30;1.50;;;18.20;76.30;;;;;;5076973;28;20051;-80
2022/05/28 11:13:59;;;;;;;8.40;1.35;;;18.20;76.70;;;;;;5061030;28;20063;-80
2022/05/28 11:16:54;;;;;;;8.90;1.55;;;18.10;78.50;;;;;;5059737;28;20049;-81
2022/05/28 11:19:51;;;;;;;7.70;1.30;;;18.20;77.30;;;;;;5076213;28;20059;-81
2022/05/28 11:23:03;;;;;;;5.68;1.60;;;18.50;76.30;;;;;;5077007;28;20036;-81
2022/05/28 11:25:54;;;;;;;4.40;1.23;;;18.70;75.40;;;;;;5058842;28;20049;-82
2022/05/28 11:28:28;;;;;;;6.70;1.40;;;18.60;74.70;;;;;;5076804;28;20376;-82
2022/05/28 11:31:05;;;;;;;6.22;1.40;;;18.60;75.10;;;;;;5059225;28;20055;-81
2022/05/28 11:33:38;;;;;;;7.73;1.57;;;18.60;75.70;;;;;;5075901;28;20340;-79
2022/05/28 11:36:30;;;;;;;10.80;1.55;;;18.60;76.00;;;;;;5040533;28;20464;-81
2022/05/28 11:39:05;;;;;;;7.05;1.40;;;18.60;76.30;;;;;;5018576;28;20057;-79
2022/05/28 11:41:46;;;;;;;5.18;1.20;;;18.70;76.50;;;;;;5038868;28;20455;-79
2022/05/28 11:44:52;;;;;;;4.90;1.30;;;18.70;76.10;;;;;;5056611;28;20048;-80
2022/05/28 11:47:37;;;;;;;8.13;1.50;;;18.70;76.60;;;;;;4941146;29;20052;-81
2022/05/28 11:53:22;;;;;;;7.68;1.80;;;18.70;74.90;;;;;;5055513;28;20049;-79
2022/05/28 11:55:55;;;;;;;11.40;1.45;;;18.60;75.20;;;;;;5056490;28;20041;-80
2022/05/28 11:58:28;;;;;;;8.18;1.73;;;18.60;75.80;;;;;;5038015;28;20072;-79
2022/05/28 12:01:01;;;;;;;5.30;1.23;;;18.50;76.20;;;;;;5039716;28;20049;-79
2022/05/28 12:03:30;;;;;;;7.93;1.67;;;18.60;76.10;;;;;;5039219;28;20045;-80
2022/05/28 12:06:06;;;;;;;10.13;1.60;;;18.70;75.80;;;;;;5055165;28;20056;-78
2022/05/28 12:09:02;;;;;;;4.93;1.15;;;18.90;75.40;;;;;;5056273;28;20463;-79
2022/05/28 12:11:30;;;;;;;5.28;1.33;;;19.10;74.50;;;;;;5037417;28;20049;-79
2022/05/28 12:14:01;;;;;;;5.07;1.20;;;19.30;74.00;;;;;;5039112;28;20053;-80
2022/05/28 12:16:41;;;;;;;7.13;1.30;;;19.60;73.80;;;;;;5056198;28;20053;-79
2022/05/28 12:19:12;;;;;;;4.57;1.27;;;19.80;73.60;;;;;;5055052;28;20068;-79
2022/05/28 12:21:42;;;;;;;7.20;1.33;;;19.90;73.00;;;;;;5039009;28;20049;-79
2022/05/28 12:24:21;;;;;;;5.40;1.17;;;20.10;73.40;;;;;;5055982;28;20068;-80
2022/05/28 12:32:14;;;;;;;6.07;1.30;;;20.40;72.80;;;;;;5054791;28;20056;-80
2022/05/28 12:35:01;;;;;;;6.50;1.20;;;20.40;71.60;;;;;;5038974;28;20045;-80
2022/05/28 12:37:31;;;;;;;;;;;20.30;71.00;;;;;;5055179;28;20044;-79
2022/05/28 12:40:31;;;;;;;7.43;1.17;;;20.10;71.00;;;;;;5054563;28;19931;-79
2022/05/28 12:43:18;;;;;;;6.10;1.50;;;20.10;72.60;;;;;;5012213;28;20052;-80
2022/05/28 12:45:47;;;;;;;;;;;20.10;71.30;;;;;;5055291;28;20472;-80
2022/05/28 12:48:28;;;;;;;6.15;1.25;;;20.10;71.90;;;;;;5055426;28;19921;-80
2022/05/28 12:51:11;;;;;;;7.82;1.50;;;20.20;72.20;;;;;;5054810;28;20079;-80
2022/05/28 12:53:54;;;;;;;7.50;1.40;;;20.20;72.10;;;;;;5055837;28;20044;-81
2022/05/28 12:56:42;;;;;;;7.25;0.93;;;20.10;71.40;;;;;;5054582;28;20060;-80
2022/05/28 12:59:27;;;;;;;4.97;1.30;;;19.90;71.00;;;;;;5054653;28;20048;-81
2022/05/28 13:02:16;;;;;;;7.38;1.23;;;19.80;72.10;;;;;;5054841;28;20045;-81
2022/05/28 13:05:15;;;;;;;5.70;1.20;;;19.80;71.60;;;;;;5037069;28;20052;-81
2022/05/28 13:07:57;;;;;;;6.38;1.30;;;19.60;70.20;;;;;;5054232;28;20036;-81
2022/05/28 13:10:28;;;;;;;5.68;1.10;;;19.50;70.90;;;;;;5055350;28;20060;-81
2022/05/28 13:13:33;;;;;;;6.47;1.00;;;19.50;72.20;;;;;;5053437;28;20407;-81
2022/05/28 13:16:50;;;;;;;6.15;0.90;;;19.70;68.90;;;;;;5055573;28;20041;-79
2022/05/28 13:19:40;;;;;;;3.15;0.95;;;19.70;68.90;;;;;;5010737;28;20068;-79
2022/05/28 13:22:31;;;;;;;3.92;0.80;;;19.80;69.40;;;;;;5055393;28;20370;-79
2022/05/28 13:25:29;;;;;;;5.43;1.00;;;19.80;69.30;;;;;;5054101;28;20060;-70
2022/05/28 13:28:30;;;;;;;6.40;1.02;;;20.80;69.70;;;;;;5016230;28;20052;-72
2022/05/28 13:31:10;;;;;;;4.90;1.20;;;21.50;68.10;;;;;;5053734;28;20423;-71
2022/05/28 13:33:40;;;;;;;4.22;1.00;;;23.50;66.50;;;;;;5054438;28;20494;-71
2022/05/28 13:36:12;;;;;;;3.83;0.88;;;24.40;62.80;;;;;;5069970;28;20059;-71
2022/05/28 13:38:44;;;;;;;6.55;1.80;;;24.20;62.80;;;;;;5073917;28;20048;-71